Time;durP1;ratioP1;P1;durP2;ratioP2;P2;SDS_P1;SDS_P2;PMS_P1;PMS_P2;Temp;Humidity;BMP_temperature;BMP_pressure;BME280_temperature;BME280_humidity;BME280_pressure;Samples;Min_cycle;Max_cycle;Signal;HPM_P1;HPM_P2
2021/10/27 00:00:23;;;;;;;13.88;9.55;;;12.70;99.90;;;;;;4972250;28;20038;-90
2021/10/27 00:02:49;;;;;;;14.68;9.50;;;12.70;99.90;;;;;;4973895;28;20426;-91
2021/10/27 00:05:15;;;;;;;16.20;10.77;;;12.70;99.90;;;;;;4991651;28;20061;-91
2021/10/27 00:07:40;;;;;;;11.60;8.13;;;12.70;99.90;;;;;;4976353;28;20035;-93
2021/10/27 00:10:06;;;;;;;15.40;9.98;;;12.70;99.90;;;;;;4986119;28;20038;-86
2021/10/27 00:12:32;;;;;;;18.40;9.43;;;12.70;99.90;;;;;;5011571;28;20037;-88
2021/10/27 00:14:58;;;;;;;14.15;8.52;;;12.70;99.90;;;;;;4977154;28;20622;-93
2021/10/27 00:17:24;;;;;;;16.02;9.48;;;12.70;99.90;;;;;;4956710;28;20121;-91
2021/10/27 00:19:50;;;;;;;12.75;7.53;;;12.70;99.90;;;;;;4955974;28;20050;-95
2021/10/27 00:22:15;;;;;;;13.50;10.23;;;12.80;99.90;;;;;;4973868;28;20034;-94
2021/10/27 00:24:41;;;;;;;13.23;9.07;;;12.80;99.90;;;;;;4988130;28;20117;-93
2021/10/27 00:27:07;;;;;;;12.13;8.15;;;12.80;99.90;;;;;;5031800;28;20029;-95
2021/10/27 00:29:34;;;;;;;12.98;9.70;;;12.80;99.90;;;;;;5015116;28;20493;-94
2021/10/27 00:32:00;;;;;;;15.57;10.25;;;12.90;99.90;;;;;;5037761;28;20078;-91
2021/10/27 00:34:26;;;;;;;13.35;9.00;;;12.80;99.90;;;;;;5051120;28;20029;-87
2021/10/27 00:36:51;;;;;;;13.27;8.45;;;12.90;99.90;;;;;;5050870;28;20061;-87
2021/10/27 00:39:17;;;;;;;17.20;10.65;;;12.90;99.90;;;;;;5035164;28;20040;-92
2021/10/27 00:41:43;;;;;;;15.18;9.60;;;12.90;99.90;;;;;;5035155;28;20029;-87
2021/10/27 00:44:21;;;;;;;15.70;9.73;;;12.90;99.90;;;;;;5027829;28;20040;-87
2021/10/27 00:46:47;;;;;;;16.48;9.55;;;12.90;99.90;;;;;;5035479;23;20056;-86
2021/10/27 00:49:13;;;;;;;11.50;8.48;;;12.90;99.90;;;;;;5051190;28;20034;-87
2021/10/27 00:51:39;;;;;;;12.35;8.85;;;12.90;99.90;;;;;;5051794;28;20052;-95
2021/10/27 00:54:05;;;;;;;13.10;9.95;;;13.00;99.90;;;;;;5043923;28;20083;-94
2021/10/27 00:56:32;;;;;;;14.43;8.98;;;13.00;99.90;;;;;;5015682;28;20029;-93
2021/10/27 00:58:57;;;;;;;14.68;9.45;;;13.00;99.90;;;;;;5015502;28;20040;-93
2021/10/27 01:01:26;;;;;;;15.80;10.73;;;13.00;99.90;;;;;;5015749;28;20536;-90
2021/10/27 01:03:52;;;;;;;16.88;9.60;;;13.10;99.90;;;;;;5020570;28;20041;-94
2021/10/27 01:06:19;;;;;;;12.27;8.95;;;13.10;99.90;;;;;;5035898;28;20037;-89
2021/10/27 01:08:45;;;;;;;12.55;9.55;;;13.10;99.90;;;;;;5049758;28;20029;-92
2021/10/27 01:11:11;;;;;;;13.57;9.32;;;13.10;99.90;;;;;;5031790;28;20029;-93
2021/10/27 01:13:39;;;;;;;16.92;9.05;;;13.10;99.90;;;;;;5013983;28;20065;-90
2021/10/27 01:16:05;;;;;;;13.60;7.90;;;13.10;99.90;;;;;;5015207;28;20079;-91
2021/10/27 01:18:31;;;;;;;12.02;8.15;;;13.10;99.90;;;;;;5015235;28;20037;-94
2021/10/27 01:20:56;;;;;;;14.77;8.55;;;13.10;99.90;;;;;;5031272;28;20037;-93
2021/10/27 01:23:22;;;;;;;13.25;9.20;;;13.10;99.90;;;;;;5014333;28;20072;-94
2021/10/27 01:25:48;;;;;;;13.82;10.38;;;13.10;99.90;;;;;;5014796;28;20045;-94
2021/10/27 01:28:14;;;;;;;14.52;9.23;;;13.10;99.90;;;;;;5042329;28;20069;-90
2021/10/27 01:30:40;;;;;;;15.18;9.15;;;13.10;99.90;;;;;;5067610;28;20037;-92
2021/10/27 01:33:06;;;;;;;13.40;8.70;;;13.10;99.90;;;;;;5050773;28;20073;-92
2021/10/27 01:35:31;;;;;;;12.20;7.43;;;13.10;99.90;;;;;;5031168;28;20033;-93
2021/10/27 01:38:07;;;;;;;14.35;7.93;;;13.10;99.90;;;;;;5014496;28;20047;-92
2021/10/27 01:40:33;;;;;;;11.70;7.90;;;13.10;99.90;;;;;;5047544;28;20464;-90
2021/10/27 01:42:58;;;;;;;8.48;6.53;;;13.10;99.90;;;;;;5030897;28;20030;-92
2021/10/27 01:45:28;;;;;;;11.60;7.32;;;13.10;99.90;;;;;;5048036;28;20051;-94
2021/10/27 01:47:57;;;;;;;13.70;7.25;;;13.10;99.90;;;;;;5050439;28;20049;-90
2021/10/27 01:50:23;;;;;;;12.10;6.78;;;13.10;99.90;;;;;;5040805;28;20543;-94
2021/10/27 01:52:49;;;;;;;9.90;6.55;;;13.10;99.90;;;;;;5037754;28;20029;-88
2021/10/27 01:55:15;;;;;;;15.35;7.85;;;13.10;99.90;;;;;;5065525;28;20036;-85
2021/10/27 01:57:42;;;;;;;12.30;6.97;;;13.10;99.90;;;;;;5066955;28;20029;-90
2021/10/27 02:00:08;;;;;;;9.00;6.60;;;13.10;99.90;;;;;;5050372;28;20025;-93
2021/10/27 02:02:40;;;;;;;12.77;7.60;;;13.10;99.90;;;;;;5049904;28;20021;-90
2021/10/27 02:05:07;;;;;;;13.73;7.65;;;13.20;99.90;;;;;;5049287;28;20047;-88
2021/10/27 02:07:34;;;;;;;8.05;5.38;;;13.10;99.90;;;;;;5067058;28;20029;-90
2021/10/27 02:09:59;;;;;;;11.13;5.60;;;13.10;99.90;;;;;;5050158;28;20086;-93
2021/10/27 02:12:25;;;;;;;10.20;4.95;;;13.10;99.90;;;;;;5044081;28;20030;-93
2021/10/27 02:14:51;;;;;;;8.63;5.90;;;13.20;99.90;;;;;;5029498;28;20037;-90
2021/10/27 02:17:21;;;;;;;7.50;5.55;;;13.20;99.90;;;;;;5013788;28;20029;-86
2021/10/27 02:19:46;;;;;;;12.80;6.45;;;13.10;99.90;;;;;;5013844;28;20034;-88
2021/10/27 02:22:12;;;;;;;9.77;5.90;;;13.20;99.90;;;;;;5018345;28;20510;-86
2021/10/27 02:24:38;;;;;;;8.13;5.10;;;13.20;99.90;;;;;;5048749;28;20051;-87
2021/10/27 02:27:04;;;;;;;6.68;5.45;;;13.30;99.90;;;;;;5065989;28;20033;-92
2021/10/27 02:29:30;;;;;;;11.88;6.65;;;13.30;99.90;;;;;;5048953;28;20109;-88
2021/10/27 02:31:55;;;;;;;7.35;4.47;;;13.30;99.90;;;;;;5067352;28;20044;-94
2021/10/27 02:34:21;;;;;;;9.48;4.88;;;13.30;99.90;;;;;;5040547;28;20072;-92
2021/10/27 02:36:48;;;;;;;8.57;5.88;;;13.40;99.90;;;;;;5015085;28;20032;-94
2021/10/27 02:39:14;;;;;;;11.55;6.05;;;13.40;99.90;;;;;;5013363;28;20105;-95
2021/10/27 02:41:39;;;;;;;8.18;5.43;;;13.40;99.90;;;;;;5030062;28;20033;-95
2021/10/27 02:44:05;;;;;;;10.65;5.03;;;13.40;99.90;;;;;;5020110;28;20040;-93
2021/10/27 02:46:30;;;;;;;7.85;4.57;;;13.40;99.90;;;;;;5048949;28;20056;-88
2021/10/27 02:48:56;;;;;;;5.13;3.42;;;13.40;99.90;;;;;;5066027;28;20033;-91
2021/10/27 02:51:22;;;;;;;8.38;4.57;;;13.40;99.90;;;;;;5065827;28;20112;-86
2021/10/27 02:53:47;;;;;;;7.13;2.88;;;13.40;99.90;;;;;;5043398;28;20029;-88
2021/10/27 02:56:15;;;;;;;6.75;3.85;;;13.40;99.90;;;;;;5012861;28;20037;-94
2021/10/27 02:58:42;;;;;;;8.27;3.28;;;13.40;99.90;;;;;;5022680;28;20033;-94
2021/10/27 03:01:08;;;;;;;7.15;2.38;;;13.40;99.90;;;;;;5041463;28;20029;-87
2021/10/27 03:03:33;;;;;;;6.90;2.28;;;13.40;99.90;;;;;;5048101;28;20041;-93
2021/10/27 03:06:09;;;;;;;6.93;2.30;;;13.40;99.90;;;;;;5049017;28;20055;-91
2021/10/27 03:08:34;;;;;;;4.15;1.67;;;13.40;99.90;;;;;;5046688;28;20551;-95
2021/10/27 03:11:00;;;;;;;4.07;1.77;;;13.40;99.90;;;;;;5012702;28;20056;-93
2021/10/27 03:13:26;;;;;;;7.95;2.03;;;13.40;99.90;;;;;;5013785;28;20032;-94
2021/10/27 03:15:52;;;;;;;5.47;2.00;;;13.40;99.90;;;;;;5048956;28;20032;-96
2021/10/27 03:18:18;;;;;;;5.72;1.77;;;13.40;99.90;;;;;;5048622;28;20074;-93
2021/10/27 03:20:43;;;;;;;6.05;2.10;;;13.40;99.90;;;;;;5065129;28;20085;-91
2021/10/27 03:23:11;;;;;;;4.18;1.75;;;13.40;99.90;;;;;;5048878;28;20044;-92
2021/10/27 03:25:37;;;;;;;4.07;1.75;;;13.40;99.90;;;;;;5048925;28;20063;-92
2021/10/27 03:28:10;;;;;;;4.07;1.70;;;13.40;99.90;;;;;;5048552;28;20065;-89
2021/10/27 03:30:36;;;;;;;7.78;2.33;;;13.40;99.90;;;;;;5065268;28;20094;-94
2021/10/27 03:33:02;;;;;;;4.78;1.92;;;13.40;99.90;;;;;;5065019;28;20071;-87
2021/10/27 03:35:27;;;;;;;7.55;2.58;;;13.40;99.90;;;;;;5047923;28;20025;-88
2021/10/27 03:37:54;;;;;;;6.57;2.17;;;13.40;99.90;;;;;;5047753;28;20500;-94
2021/10/27 03:40:20;;;;;;;6.05;2.53;;;13.40;99.90;;;;;;5048561;28;20037;-93
2021/10/27 03:42:45;;;;;;;7.45;2.85;;;13.30;99.90;;;;;;5065069;28;20029;-95
2021/10/27 03:48:28;;;;;;;6.05;2.90;;;13.30;99.90;;;;;;5006109;28;20510;-96
2021/10/27 03:50:54;;;;;;;6.80;3.90;;;13.30;99.90;;;;;;5006323;28;20050;-87
2021/10/27 03:53:19;;;;;;;8.48;4.88;;;13.30;99.90;;;;;;5004457;28;20053;-91
2021/10/27 03:55:45;;;;;;;9.60;4.93;;;13.20;99.90;;;;;;4987086;28;20055;-96
2021/10/27 03:58:12;;;;;;;7.70;4.57;;;13.20;99.90;;;;;;4986518;28;20034;-92
2021/10/27 04:00:44;;;;;;;8.52;4.13;;;13.20;99.90;;;;;;4971389;28;20050;-94
2021/10/27 04:03:11;;;;;;;9.98;5.78;;;13.20;99.90;;;;;;5005336;28;20069;-93
2021/10/27 04:05:36;;;;;;;8.35;5.13;;;13.20;99.90;;;;;;5005520;28;20034;-93
2021/10/27 04:08:02;;;;;;;7.80;3.85;;;13.20;99.90;;;;;;5006046;28;20065;-92
2021/10/27 04:10:28;;;;;;;5.68;3.35;;;13.20;99.90;;;;;;5006235;28;20059;-86
2021/10/27 04:12:53;;;;;;;6.75;3.85;;;13.20;99.90;;;;;;5006110;28;20125;-86
2021/10/27 04:15:19;;;;;;;6.40;3.80;;;13.10;99.90;;;;;;5005455;28;20034;-86
2021/10/27 04:17:48;;;;;;;8.63;4.03;;;13.10;99.90;;;;;;5005460;28;20033;-86
2021/10/27 04:20:14;;;;;;;10.93;4.18;;;13.10;99.90;;;;;;5005640;28;20043;-85
2021/10/27 04:22:41;;;;;;;8.23;3.53;;;13.10;99.90;;;;;;5005805;28;20034;-87
2021/10/27 04:25:10;;;;;;;6.15;3.03;;;13.10;99.90;;;;;;4989622;28;20039;-85
2021/10/27 04:27:36;;;;;;;8.10;2.33;;;13.10;99.90;;;;;;4986210;28;20026;-86
2021/10/27 04:30:05;;;;;;;7.28;2.45;;;13.10;99.90;;;;;;4986264;28;20046;-87
2021/10/27 04:32:31;;;;;;;6.47;2.33;;;13.10;99.90;;;;;;4970394;28;20050;-87
2021/10/27 04:34:56;;;;;;;8.63;2.58;;;13.20;99.90;;;;;;4986361;28;20031;-87
2021/10/27 04:37:26;;;;;;;5.43;2.58;;;13.10;99.90;;;;;;4985841;28;20043;-92
2021/10/27 04:39:52;;;;;;;7.67;3.17;;;13.10;99.90;;;;;;4985896;28;20042;-90
2021/10/27 04:42:17;;;;;;;6.57;2.10;;;13.20;99.90;;;;;;4986083;28;20027;-89
2021/10/27 04:44:43;;;;;;;9.20;3.00;;;13.10;99.90;;;;;;4989246;28;20042;-89
2021/10/27 04:47:09;;;;;;;6.90;3.03;;;13.10;99.90;;;;;;4977266;28;20058;-87
2021/10/27 04:49:34;;;;;;;13.35;3.67;;;13.10;99.90;;;;;;4971966;28;20050;-87
2021/10/27 04:52:00;;;;;;;6.28;2.15;;;13.20;99.90;;;;;;4988373;28;20042;-87
2021/10/27 04:54:26;;;;;;;8.15;2.42;;;13.10;99.90;;;;;;4979572;28;20511;-87
2021/10/27 04:56:52;;;;;;;8.50;3.10;;;13.10;99.90;;;;;;4973533;28;20026;-87
2021/10/27 04:59:18;;;;;;;5.90;2.25;;;13.10;99.90;;;;;;4973305;28;20049;-88
2021/10/27 05:01:46;;;;;;;5.32;2.13;;;13.10;99.90;;;;;;4988588;28;20051;-87
2021/10/27 05:04:13;;;;;;;7.90;2.13;;;13.10;99.90;;;;;;4969325;29;20121;-87
2021/10/27 05:06:48;;;;;;;4.10;1.95;;;13.20;99.90;;;;;;4971022;29;20035;-89
2021/10/27 05:09:13;;;;;;;3.90;1.40;;;13.20;99.90;;;;;;4969862;29;20043;-89
2021/10/27 05:11:39;;;;;;;5.38;2.35;;;13.10;99.90;;;;;;4973270;28;20041;-87
2021/10/27 05:14:05;;;;;;;6.47;1.98;;;13.10;99.90;;;;;;4965364;29;20059;-86
2021/10/27 05:16:30;;;;;;;7.32;2.22;;;13.10;99.90;;;;;;4935317;28;20095;-87
2021/10/27 05:18:56;;;;;;;5.40;2.53;;;13.10;99.90;;;;;;4985141;28;20051;-86
2021/10/27 05:21:21;;;;;;;4.95;1.55;;;13.20;99.90;;;;;;4988122;28;20031;-89
2021/10/27 05:23:47;;;;;;;6.65;2.55;;;13.20;99.90;;;;;;4967837;28;20452;-86
2021/10/27 05:26:14;;;;;;;6.68;2.00;;;13.10;99.90;;;;;;4972743;28;20066;-84
2021/10/27 05:28:40;;;;;;;12.10;1.50;;;13.10;99.90;;;;;;4971765;28;20035;-88
2021/10/27 05:31:06;;;;;;;6.75;1.70;;;13.10;99.90;;;;;;4988078;28;20031;-86
2021/10/27 05:33:31;;;;;;;10.73;3.55;;;13.10;99.90;;;;;;4969077;28;20039;-86
2021/10/27 05:35:57;;;;;;;6.95;1.60;;;13.10;99.90;;;;;;4987707;28;20056;-86
2021/10/27 05:38:23;;;;;;;8.75;2.40;;;13.10;99.90;;;;;;4972477;28;20031;-85
2021/10/27 05:40:49;;;;;;;4.85;2.45;;;13.10;99.90;;;;;;4978731;28;20035;-85
2021/10/27 05:43:15;;;;;;;5.53;2.03;;;13.10;99.90;;;;;;4953315;28;20083;-86
2021/10/27 05:45:41;;;;;;;6.10;1.83;;;13.10;99.90;;;;;;4971727;28;20042;-86
2021/10/27 05:48:09;;;;;;;4.80;1.80;;;13.10;99.90;;;;;;5007409;28;20108;-85
2021/10/27 05:55:46;;;;;;;7.68;3.17;;;13.10;99.90;;;;;;4988197;28;20058;-86
2021/10/27 05:58:13;;;;;;;6.15;2.45;;;13.10;99.90;;;;;;4972468;28;20084;-86
2021/10/27 06:00:41;;;;;;;5.88;2.70;;;13.00;99.90;;;;;;5007107;28;20042;-86
2021/10/27 06:03:06;;;;;;;9.05;2.88;;;13.00;99.90;;;;;;5007663;28;20034;-85
2021/10/27 06:05:32;;;;;;;7.28;2.17;;;13.10;99.90;;;;;;4987620;28;20070;-85
2021/10/27 06:07:59;;;;;;;6.35;2.35;;;13.10;99.90;;;;;;4987844;28;20031;-86
2021/10/27 06:10:25;;;;;;;5.70;2.10;;;13.10;99.90;;;;;;4988070;28;20038;-86
2021/10/27 06:12:56;;;;;;;7.53;2.05;;;13.00;99.90;;;;;;4987984;28;20117;-85
2021/10/27 06:15:23;;;;;;;7.53;3.22;;;13.00;99.90;;;;;;5004706;28;20034;-86
2021/10/27 06:17:52;;;;;;;8.10;2.85;;;13.00;99.90;;;;;;5007326;28;20023;-85
2021/10/27 06:20:18;;;;;;;14.20;3.60;;;13.00;99.90;;;;;;5006622;28;20038;-85
2021/10/27 06:22:44;;;;;;;8.73;2.45;;;13.00;99.90;;;;;;4990908;28;20030;-84
2021/10/27 06:25:11;;;;;;;10.48;3.08;;;13.00;99.90;;;;;;5006617;28;20042;-87
2021/10/27 06:27:41;;;;;;;8.95;2.97;;;13.00;99.90;;;;;;5007234;28;20027;-86
2021/10/27 06:35:26;;;;;;;6.40;2.53;;;12.90;99.90;;;;;;4989296;28;20062;-85
2021/10/27 06:38:12;;;;;;;5.30;2.25;;;12.90;99.90;;;;;;4987425;28;20027;-85
2021/10/27 06:46:28;;;;;;;6.75;2.50;;;12.90;99.90;;;;;;4987214;28;20066;-86
2021/10/27 06:48:54;;;;;;;8.05;2.67;;;12.90;99.90;;;;;;4987249;28;20062;-86
2021/10/27 06:51:19;;;;;;;5.20;2.08;;;12.90;99.90;;;;;;4987199;28;20035;-85
2021/10/27 06:53:46;;;;;;;6.53;2.90;;;12.90;99.90;;;;;;4994800;28;20062;-87
2021/10/27 06:56:13;;;;;;;6.72;3.08;;;12.80;99.90;;;;;;4986829;28;20026;-85
2021/10/27 06:59:30;;;;;;;9.73;3.15;;;12.80;99.90;;;;;;4986484;28;20054;-85
2021/10/27 07:04:32;;;;;;;6.80;3.47;;;12.80;99.90;;;;;;4983796;28;20359;-86
2021/10/27 07:07:09;;;;;;;6.50;3.80;;;12.80;99.90;;;;;;5005069;28;20034;-86
2021/10/27 07:15:27;;;;;;;9.85;4.68;;;12.70;99.90;;;;;;4987114;28;20080;-94
2021/10/27 07:17:55;;;;;;;8.30;4.00;;;12.70;99.90;;;;;;4987376;28;20035;-90
2021/10/27 07:20:23;;;;;;;10.95;4.90;;;12.70;99.90;;;;;;4987269;28;20085;-93
2021/10/27 07:22:50;;;;;;;11.32;5.00;;;12.70;99.90;;;;;;4986776;28;20041;-86
2021/10/27 07:25:16;;;;;;;8.13;3.22;;;12.70;99.90;;;;;;5000493;28;20042;-86
2021/10/27 07:27:46;;;;;;;6.55;3.97;;;12.70;99.90;;;;;;4984640;28;20034;-89
2021/10/27 07:30:13;;;;;;;9.45;4.50;;;12.70;99.90;;;;;;5006135;28;20552;-89
2021/10/27 07:32:40;;;;;;;10.30;4.45;;;12.80;99.90;;;;;;5007085;28;20045;-88
2021/10/27 07:40:46;;;;;;;7.55;3.85;;;12.80;99.90;;;;;;4997467;28;20058;-84
2021/10/27 07:43:26;;;;;;;11.63;4.60;;;12.80;99.90;;;;;;5003521;28;20422;-85
2021/10/27 07:45:53;;;;;;;10.02;4.18;;;12.80;99.90;;;;;;4986939;28;20106;-85
2021/10/27 07:48:19;;;;;;;7.35;3.58;;;12.80;99.90;;;;;;4987624;28;20082;-84
2021/10/27 07:50:46;;;;;;;8.38;3.88;;;12.90;99.90;;;;;;4988938;28;20053;-86
2021/10/27 07:53:14;;;;;;;6.75;3.78;;;12.90;99.90;;;;;;4985193;28;20054;-85
2021/10/27 07:55:43;;;;;;;8.73;3.60;;;13.10;99.90;;;;;;5002018;28;20035;-87
2021/10/27 07:58:17;;;;;;;8.10;3.40;;;13.10;99.90;;;;;;4986824;28;20099;-89
2021/10/27 08:00:43;;;;;;;6.95;3.13;;;13.20;99.90;;;;;;4988213;28;20122;-87
2021/10/27 08:03:10;;;;;;;6.55;3.03;;;13.10;99.90;;;;;;4971311;28;20035;-87
2021/10/27 08:05:39;;;;;;;7.93;3.10;;;13.10;99.90;;;;;;4969039;28;20046;-88
2021/10/27 08:08:06;;;;;;;6.82;2.45;;;13.10;99.90;;;;;;4968914;28;20035;-86
2021/10/27 08:10:32;;;;;;;7.13;3.15;;;13.20;99.90;;;;;;4968904;28;20405;-86
2021/10/27 08:12:59;;;;;;;10.65;4.43;;;13.20;99.90;;;;;;4985320;28;20479;-87
2021/10/27 08:15:25;;;;;;;4.90;2.88;;;13.30;99.90;;;;;;4968787;28;20066;-87
2021/10/27 08:17:54;;;;;;;6.07;2.58;;;13.40;99.90;;;;;;4969013;28;20031;-86
2021/10/27 08:20:25;;;;;;;6.53;3.65;;;13.40;99.90;;;;;;4968728;28;20047;-83
2021/10/27 08:22:55;;;;;;;7.95;3.80;;;13.50;99.90;;;;;;4986306;28;20399;-85
2021/10/27 08:25:36;;;;;;;9.10;3.17;;;13.60;99.90;;;;;;4988628;28;20047;-86
2021/10/27 08:28:14;;;;;;;9.13;2.65;;;13.80;99.90;;;;;;4988435;28;20098;-86
2021/10/27 08:30:47;;;;;;;7.90;2.53;;;13.60;99.90;;;;;;4972770;28;20098;-87
2021/10/27 08:36:11;;;;;;;8.63;3.08;;;13.60;99.90;;;;;;4971785;28;20042;-87
2021/10/27 08:38:36;;;;;;;6.63;3.25;;;13.70;99.90;;;;;;4972404;28;20038;-87
2021/10/27 08:41:03;;;;;;;7.05;2.97;;;13.90;99.90;;;;;;4983734;28;20034;-86
2021/10/27 08:43:29;;;;;;;7.50;3.30;;;14.10;99.90;;;;;;5008026;28;20038;-86
2021/10/27 08:45:57;;;;;;;5.68;1.92;;;14.30;99.90;;;;;;5019977;23;20030;-87
2021/10/27 08:48:25;;;;;;;6.95;3.08;;;14.40;99.90;;;;;;5034564;28;20029;-86
2021/10/27 08:50:52;;;;;;;8.07;3.83;;;14.40;99.90;;;;;;5050895;28;20039;-86
2021/10/27 08:53:21;;;;;;;8.10;3.78;;;14.50;99.90;;;;;;5050564;28;20029;-86
2021/10/27 08:55:51;;;;;;;7.03;3.77;;;14.50;99.90;;;;;;5034011;28;20059;-85
2021/10/27 08:58:42;;;;;;;8.93;4.70;;;14.50;99.90;;;;;;5050663;28;20029;-85
2021/10/27 09:01:15;;;;;;;9.75;4.90;;;14.50;99.90;;;;;;5050297;28;20067;-86
2021/10/27 09:34:30;;;;;;;9.60;5.60;;;14.50;99.90;;;;;;5049461;28;20064;-85
2021/10/27 09:39:47;;;;;;;7.63;4.47;;;14.50;99.90;;;;;;5049349;28;20045;-85
2021/10/27 10:05:28;;;;;;;8.13;4.32;;;15.50;99.90;;;;;;4988542;28;20069;-85
2021/10/27 10:07:54;;;;;;;6.25;4.18;;;15.40;99.90;;;;;;4988818;28;20057;-85
2021/10/27 10:10:20;;;;;;;6.68;4.18;;;15.60;99.90;;;;;;4988730;28;20034;-85
2021/10/27 10:12:48;;;;;;;7.18;2.90;;;15.60;99.90;;;;;;4988815;28;20453;-86
2021/10/27 10:15:18;;;;;;;6.95;3.53;;;15.70;99.90;;;;;;4988642;28;20034;-87
2021/10/27 10:17:45;;;;;;;8.13;3.25;;;15.70;99.90;;;;;;4988385;28;20038;-85
2021/10/27 10:20:13;;;;;;;5.55;4.00;;;15.70;99.90;;;;;;4989074;28;20038;-86
2021/10/27 10:22:39;;;;;;;9.07;3.50;;;15.80;99.90;;;;;;5005178;28;20518;-86
2021/10/27 10:25:14;;;;;;;6.82;3.38;;;15.90;99.90;;;;;;5008667;28;20053;-86
2021/10/27 10:27:48;;;;;;;6.85;4.03;;;16.00;99.90;;;;;;5012093;28;20038;-86
2021/10/27 10:30:31;;;;;;;7.60;4.20;;;16.00;99.90;;;;;;5028816;28;20069;-87
2021/10/27 10:33:05;;;;;;;7.63;4.68;;;15.90;99.90;;;;;;5028621;28;20030;-86
2021/10/27 10:35:56;;;;;;;5.65;4.18;;;15.90;99.90;;;;;;5028861;28;20041;-87
2021/10/27 10:39:36;;;;;;;8.95;4.57;;;16.10;99.90;;;;;;5028456;28;20071;-86
2021/10/27 10:44:55;;;;;;;6.57;4.32;;;16.10;99.90;;;;;;5048008;28;20071;-85
2021/10/27 10:59:29;;;;;;;3.90;2.50;;;16.60;99.90;;;;;;5028043;28;20060;-85
2021/10/27 11:24:03;;;;;;;4.32;2.05;;;16.40;99.90;;;;;;5027849;28;20040;-87
2021/10/27 11:40:20;;;;;;;3.60;2.22;;;16.20;99.90;;;;;;5030994;28;20032;-86
2021/10/27 11:42:53;;;;;;;3.75;2.25;;;16.30;99.90;;;;;;5047366;28;20055;-85
2021/10/27 11:45:34;;;;;;;5.13;3.00;;;16.10;99.90;;;;;;5030799;28;20052;-85
2021/10/27 11:48:04;;;;;;;3.90;2.40;;;16.10;99.90;;;;;;5047146;28;20187;-85
2021/10/27 11:50:31;;;;;;;;;;;16.00;99.90;;;;;;5048010;28;20037;-87
2021/10/27 11:52:56;;;;;;;5.95;3.03;;;15.90;99.90;;;;;;5047325;28;19956;-85
2021/10/27 11:55:27;;;;;;;6.15;3.47;;;15.90;99.90;;;;;;5065013;28;20029;-85
2021/10/27 11:57:53;;;;;;;6.22;2.75;;;15.70;99.90;;;;;;5030612;28;20032;-85
2021/10/27 12:00:26;;;;;;;2.72;1.73;;;15.80;99.90;;;;;;5035029;28;20032;-86
2021/10/27 12:02:59;;;;;;;3.45;1.60;;;15.90;99.90;;;;;;5051491;28;20029;-85
2021/10/27 12:05:38;;;;;;;6.82;2.65;;;15.90;99.90;;;;;;5034479;28;20175;-85
2021/10/27 12:16:28;;;;;;;6.00;2.95;;;16.10;99.90;;;;;;5050874;28;20039;-85
2021/10/27 12:19:07;;;;;;;4.13;2.25;;;16.10;99.90;;;;;;5034710;28;20029;-86
2021/10/27 12:21:34;;;;;;;4.82;2.03;;;16.00;99.90;;;;;;5018573;28;20463;-86
2021/10/27 12:24:04;;;;;;;5.25;2.65;;;16.00;99.90;;;;;;5034195;28;20258;-86
2021/10/27 12:26:47;;;;;;;3.17;1.58;;;16.00;99.90;;;;;;5034123;28;20099;-86
2021/10/27 12:29:25;;;;;;;5.50;2.25;;;16.10;99.90;;;;;;5034242;28;20112;-85
2021/10/27 12:32:12;;;;;;;2.70;1.33;;;15.90;99.90;;;;;;5034427;28;20044;-86
2021/10/27 12:34:54;;;;;;;4.20;1.90;;;16.00;99.90;;;;;;5034104;28;20507;-84
2021/10/27 12:37:34;;;;;;;3.33;1.67;;;16.00;99.90;;;;;;5034020;28;20036;-85
2021/10/27 12:40:41;;;;;;;4.53;1.65;;;16.10;99.90;;;;;;5030977;28;20083;-87
2021/10/27 12:43:08;;;;;;;4.43;1.80;;;16.20;99.90;;;;;;4990703;28;20070;-86
2021/10/27 12:45:39;;;;;;;5.35;2.20;;;16.30;99.90;;;;;;4990299;28;20046;-86
2021/10/27 12:48:21;;;;;;;3.88;1.70;;;16.30;99.90;;;;;;4990470;28;20051;-86
2021/10/27 12:51:05;;;;;;;5.72;1.73;;;16.50;99.90;;;;;;5006680;28;20489;-85
2021/10/27 12:53:33;;;;;;;4.47;1.30;;;16.40;99.90;;;;;;5003725;28;20482;-85
2021/10/27 12:56:06;;;;;;;6.63;2.55;;;16.40;99.90;;;;;;5009679;28;20065;-86
2021/10/27 12:58:40;;;;;;;3.92;1.85;;;16.40;99.90;;;;;;5009702;28;20030;-85
2021/10/27 13:01:40;;;;;;;3.65;1.75;;;16.20;99.90;;;;;;5009510;28;20046;-86
2021/10/27 13:11:50;;;;;;;4.95;1.38;;;16.20;99.90;;;;;;5025833;28;20059;-86
2021/10/27 13:22:39;;;;;;;4.57;1.23;;;16.20;99.90;;;;;;5030407;28;20025;-86
2021/10/27 13:33:13;;;;;;;6.38;2.15;;;16.00;99.90;;;;;;5029980;28;20527;-86
2021/10/27 13:35:39;;;;;;;5.22;1.50;;;16.10;99.90;;;;;;5029802;28;20037;-85
2021/10/27 13:38:05;;;;;;;5.63;2.10;;;16.10;99.90;;;;;;5013433;28;20030;-86
2021/10/27 13:40:34;;;;;;;5.55;1.55;;;16.30;99.90;;;;;;5013246;28;20067;-86
2021/10/27 13:43:05;;;;;;;6.13;1.60;;;16.40;99.90;;;;;;5029626;28;20106;-85
2021/10/27 13:45:50;;;;;;;6.05;1.77;;;16.30;99.90;;;;;;5029086;28;20041;-85
2021/10/27 13:48:38;;;;;;;5.13;1.08;;;16.40;99.90;;;;;;5029702;28;20030;-85
2021/10/27 14:07:41;;;;;;;2.97;1.00;;;16.40;99.90;;;;;;5065573;28;20025;-85
2021/10/27 14:10:13;;;;;;;2.92;0.82;;;16.20;99.90;;;;;;5065608;28;20029;-85
2021/10/27 14:12:44;;;;;;;2.72;0.80;;;16.10;99.90;;;;;;5032522;28;20485;-85
2021/10/27 14:18:17;;;;;;;4.25;0.98;;;16.00;99.90;;;;;;5065242;28;20059;-85
2021/10/27 15:51:34;;;;;;;3.33;1.13;;;14.50;99.90;;;;;;5049279;28;20041;-85
2021/10/27 15:53:59;;;;;;;2.10;0.98;;;14.40;99.90;;;;;;5034570;28;20032;-85
2021/10/27 15:56:26;;;;;;;1.95;0.70;;;14.40;99.90;;;;;;5036764;28;20507;-87
2021/10/27 15:58:51;;;;;;;2.83;0.90;;;14.30;99.90;;;;;;5044333;28;20094;-85
2021/10/27 16:01:17;;;;;;;5.13;0.70;;;14.30;99.90;;;;;;5029755;28;20029;-86
2021/10/27 16:03:43;;;;;;;4.28;0.60;;;14.20;99.90;;;;;;5030108;28;20119;-87
2021/10/27 16:06:10;;;;;;;4.22;0.60;;;14.20;99.90;;;;;;5030386;28;20041;-86
2021/10/27 16:08:37;;;;;;;1.75;0.70;;;14.10;99.90;;;;;;5047064;28;20029;-86
2021/10/27 16:11:04;;;;;;;2.00;0.50;;;14.10;99.90;;;;;;5031243;28;20040;-85
2021/10/27 16:13:30;;;;;;;2.92;0.60;;;14.00;99.90;;;;;;5047135;28;20025;-86
2021/10/27 16:16:00;;;;;;;2.90;0.65;;;14.00;99.90;;;;;;5036831;28;20029;-87
2021/10/27 16:18:28;;;;;;;1.55;0.60;;;13.90;99.90;;;;;;5010866;28;20036;-88
2021/10/27 16:20:54;;;;;;;2.22;0.60;;;13.80;99.90;;;;;;5041949;28;20033;-86
2021/10/27 16:23:20;;;;;;;3.15;0.63;;;13.80;99.90;;;;;;5031283;28;20036;-85
2021/10/27 16:25:47;;;;;;;2.10;0.63;;;13.80;99.90;;;;;;5031146;28;20044;-85
2021/10/27 16:28:14;;;;;;;2.15;0.73;;;13.80;99.90;;;;;;5047242;28;20077;-85
2021/10/27 16:30:39;;;;;;;1.75;0.70;;;13.70;99.90;;;;;;5046712;28;20037;-86
2021/10/27 16:33:06;;;;;;;5.18;1.33;;;13.60;99.90;;;;;;5047409;28;20029;-88
2021/10/27 16:35:34;;;;;;;1.77;0.60;;;13.60;99.90;;;;;;5030947;28;20067;-86
2021/10/27 16:38:00;;;;;;;2.05;0.60;;;13.50;99.90;;;;;;5047312;28;20033;-86
2021/10/27 16:40:26;;;;;;;3.13;0.73;;;13.50;99.90;;;;;;5047509;28;20040;-86
2021/10/27 16:42:52;;;;;;;2.30;0.52;;;13.40;99.90;;;;;;5047324;28;20033;-86
2021/10/27 16:45:18;;;;;;;2.35;0.55;;;13.40;99.90;;;;;;5012170;28;20080;-85
2021/10/27 16:47:44;;;;;;;2.83;0.60;;;13.30;99.90;;;;;;5050679;28;20056;-85
2021/10/27 16:50:12;;;;;;;1.48;0.60;;;13.30;99.90;;;;;;5034166;28;20040;-85
2021/10/27 16:52:38;;;;;;;3.75;0.65;;;13.30;99.90;;;;;;5050775;28;20045;-85
2021/10/27 16:55:07;;;;;;;2.22;0.60;;;13.20;99.90;;;;;;5051061;28;20041;-84
2021/10/27 16:57:34;;;;;;;3.42;0.80;;;13.20;99.90;;;;;;5034457;28;20033;-84
2021/10/27 17:00:00;;;;;;;1.92;0.52;;;13.10;99.90;;;;;;5034628;28;20032;-85
2021/10/27 17:02:26;;;;;;;1.58;0.60;;;13.10;99.90;;;;;;5051030;28;20029;-84
2021/10/27 17:04:52;;;;;;;2.83;0.75;;;13.10;99.90;;;;;;5050740;28;20045;-84
2021/10/27 17:07:18;;;;;;;3.03;0.90;;;13.00;99.90;;;;;;5034273;28;20040;-85
2021/10/27 17:09:44;;;;;;;1.70;0.60;;;13.00;99.90;;;;;;5034308;28;20058;-85
2021/10/27 17:12:11;;;;;;;2.47;0.60;;;12.90;99.90;;;;;;5050806;28;20025;-84
2021/10/27 17:14:37;;;;;;;3.22;0.80;;;12.90;99.90;;;;;;5034127;28;20060;-85
2021/10/27 17:17:03;;;;;;;2.08;0.55;;;12.90;99.90;;;;;;5033930;28;20029;-85
2021/10/27 17:19:30;;;;;;;4.78;0.70;;;12.90;99.90;;;;;;5033881;28;20037;-85
2021/10/27 17:21:56;;;;;;;4.55;0.95;;;12.80;99.90;;;;;;5050617;28;20477;-85
2021/10/27 17:24:22;;;;;;;4.07;0.95;;;12.80;99.90;;;;;;5034159;28;20120;-85
2021/10/27 17:26:48;;;;;;;4.05;0.82;;;12.80;99.90;;;;;;5067639;28;20620;-85
2021/10/27 17:29:14;;;;;;;3.28;0.90;;;12.80;99.90;;;;;;5034843;28;20040;-86
2021/10/27 17:31:40;;;;;;;3.22;0.80;;;12.80;99.90;;;;;;5067049;28;20031;-85
2021/10/27 17:34:06;;;;;;;2.03;0.82;;;12.70;99.90;;;;;;5050416;28;20045;-84
2021/10/27 17:36:32;;;;;;;8.80;1.55;;;12.70;99.90;;;;;;5033777;28;20048;-85
2021/10/27 17:38:59;;;;;;;3.42;1.10;;;12.70;99.90;;;;;;5033715;28;20021;-84